sensor_id;sensor_type;location;lat;lon;timestamp;pressure;altitude;pressure_sealevel;temperature;humidity
10852;BME280;5479;52.046;6.314;2023-04-01T00:01:13;99014.16;;;9.87;100.00
10852;BME280;5479;52.046;6.314;2023-04-01T00:03:43;99016.09;;;9.85;100.00
10852;BME280;5479;52.046;6.314;2023-04-01T00:06:12;99010.69;;;9.87;100.00
10852;BME280;5479;52.046;6.314;2023-04-01T00:08:41;99012.09;;;9.91;100.00
10852;BME280;5479;52.046;6.314;2023-04-01T00:11:11;99002.75;;;9.87;100.00
10852;BME280;5479;52.046;6.314;2023-04-01T00:13:39;99006.34;;;9.86;100.00
10852;BME280;5479;52.046;6.314;2023-04-01T00:16:07;99008.75;;;9.89;100.00
10852;BME280;5479;52.046;6.314;2023-04-01T00:18:35;98998.88;;;9.91;100.00
10852;BME280;5479;52.046;6.314;2023-04-01T00:21:03;99008.75;;;9.89;100.00
10852;BME280;5479;52.046;6.314;2023-04-01T00:23:31;99016.44;;;9.92;100.00
10852;BME280;5479;52.046;6.314;2023-04-01T00:25:59;99005.41;;;9.87;100.00
10852;BME280;5479;52.046;6.314;2023-04-01T00:28:30;98998.19;;;9.89;100.00
10852;BME280;5479;52.046;6.314;2023-04-01T00:30:58;99006.34;;;9.86;100.00
10852;BME280;5479;52.046;6.314;2023-04-01T00:33:31;99012.59;;;9.85;100.00
10852;BME280;5479;52.046;6.314;2023-04-01T00:36:06;99008.06;;;9.87;100.00
10852;BME280;5479;52.046;6.314;2023-04-01T00:38:35;99004.66;;;9.85;100.00
10852;BME280;5479;52.046;6.314;2023-04-01T00:41:03;99010.44;;;9.90;100.00
10852;BME280;5479;52.046;6.314;2023-04-01T00:43:33;99006.09;;;9.89;100.00
10852;BME280;5479;52.046;6.314;2023-04-01T00:46:02;99012.25;;;9.89;100.00
10852;BME280;5479;52.046;6.314;2023-04-01T00:48:33;99009.97;;;9.85;100.00
10852;BME280;5479;52.046;6.314;2023-04-01T00:51:06;99007.66;;;9.91;100.00
10852;BME280;5479;52.046;6.314;2023-04-01T00:53:38;99019.06;;;9.92;100.00
10852;BME280;5479;52.046;6.314;2023-04-01T00:56:10;99018.47;;;9.88;100.00
10852;BME280;5479;52.046;6.314;2023-04-01T00:58:44;99009.00;;;9.86;100.00
10852;BME280;5479;52.046;6.314;2023-04-01T01:01:15;99024.34;;;9.92;100.00
10852;BME280;5479;52.046;6.314;2023-04-01T01:03:43;99016.88;;;9.97;100.00
10852;BME280;5479;52.046;6.314;2023-04-01T01:06:22;99021.47;;;9.95;100.00
10852;BME280;5479;52.046;6.314;2023-04-01T01:09:06;99014.66;;;10.02;100.00
10852;BME280;5479;52.046;6.314;2023-04-01T01:11:38;99014.94;;;9.99;100.00
10852;BME280;5479;52.046;6.314;2023-04-01T01:14:19;99019.00;;;10.03;100.00
10852;BME280;5479;52.046;6.314;2023-04-01T01:16:54;99026.19;;;10.01;100.00
10852;BME280;5479;52.046;6.314;2023-04-01T01:19:40;99019.63;;;9.95;100.00
10852;BME280;5479;52.046;6.314;2023-04-01T01:22:35;99016.63;;;10.00;100.00
10852;BME280;5479;52.046;6.314;2023-04-01T01:25:30;99023.84;;;9.98;100.00
10852;BME280;5479;52.046;6.314;2023-04-01T01:28:11;99023.84;;;9.98;100.00
10852;BME280;5479;52.046;6.314;2023-04-01T01:30:51;99028.03;;;10.00;100.00
10852;BME280;5479;52.046;6.314;2023-04-01T01:33:44;99029.69;;;10.01;100.00
10852;BME280;5479;52.046;6.314;2023-04-01T01:36:19;99030.09;;;9.97;100.00
10852;BME280;5479;52.046;6.314;2023-04-01T01:38:50;99030.78;;;9.99;100.00
10852;BME280;5479;52.046;6.314;2023-04-01T01:41:19;99030.19;;;9.95;100.00
10852;BME280;5479;52.046;6.314;2023-04-01T01:43:50;99029.13;;;9.98;100.00
10852;BME280;5479;52.046;6.314;2023-04-01T01:46:23;99031.13;;;10.05;100.00
10852;BME280;5479;52.046;6.314;2023-04-01T01:48:53;99029.69;;;10.01;100.00
10852;BME280;5479;52.046;6.314;2023-04-01T01:51:25;99032.94;;;10.05;100.00
10852;BME280;5479;52.046;6.314;2023-04-01T01:53:55;99025.50;;;9.99;100.00
10852;BME280;5479;52.046;6.314;2023-04-01T01:56:26;99032.22;;;10.03;100.00
10852;BME280;5479;52.046;6.314;2023-04-01T01:58:59;99035.56;;;10.05;100.00
10852;BME280;5479;52.046;6.314;2023-04-01T02:01:30;99036.41;;;10.05;100.00
10852;BME280;5479;52.046;6.314;2023-04-01T02:03:59;99036.41;;;10.05;100.00
10852;BME280;5479;52.046;6.314;2023-04-01T02:06:32;99040.41;;;10.00;100.00
10852;BME280;5479;52.046;6.314;2023-04-01T02:09:03;99042.81;;;10.03;100.00
10852;BME280;5479;52.046;6.314;2023-04-01T02:11:36;99039.41;;;10.01;100.00
10852;BME280;5479;52.046;6.314;2023-04-01T02:14:07;99045.81;;;9.98;100.00
10852;BME280;5479;52.046;6.314;2023-04-01T02:16:38;99048.78;;;10.05;100.00
10852;BME280;5479;52.046;6.314;2023-04-01T02:19:09;99049.22;;;10.10;100.00
10852;BME280;5479;52.046;6.314;2023-04-01T02:21:41;99045.69;;;10.00;100.00
10852;BME280;5479;52.046;6.314;2023-04-01T02:24:12;99046.91;;;9.96;100.00
10852;BME280;5479;52.046;6.314;2023-04-01T02:26:42;99057.22;;;9.99;100.00
10852;BME280;5479;52.046;6.314;2023-04-01T02:29:13;99062.53;;;9.99;100.00
10852;BME280;5479;52.046;6.314;2023-04-01T02:31:42;99049.03;;;10.02;100.00
10852;BME280;5479;52.046;6.314;2023-04-01T02:34:10;99059.38;;;10.05;100.00
10852;BME280;5479;52.046;6.314;2023-04-01T02:36:40;99053.69;;;10.09;100.00
10852;BME280;5479;52.046;6.314;2023-04-01T02:39:08;99055.72;;;10.06;100.00
10852;BME280;5479;52.046;6.314;2023-04-01T02:41:40;99060.78;;;10.09;100.00
10852;BME280;5479;52.046;6.314;2023-04-01T02:44:09;99054.78;;;10.07;100.00
10852;BME280;5479;52.046;6.314;2023-04-01T02:46:37;99058.75;;;10.12;100.00
10852;BME280;5479;52.046;6.314;2023-04-01T02:49:05;99066.78;;;10.11;100.00
10852;BME280;5479;52.046;6.314;2023-04-01T02:51:34;99070.66;;;10.07;100.00
10852;BME280;5479;52.046;6.314;2023-04-01T02:54:03;99070.66;;;10.07;100.00
10852;BME280;5479;52.046;6.314;2023-04-01T02:56:31;99082.91;;;10.08;100.00
10852;BME280;5479;52.046;6.314;2023-04-01T02:58:59;99070.66;;;10.07;100.00
10852;BME280;5479;52.046;6.314;2023-04-01T03:01:27;99077.63;;;10.08;100.00
10852;BME280;5479;52.046;6.314;2023-04-01T03:03:55;99084.56;;;10.09;100.00
10852;BME280;5479;52.046;6.314;2023-04-01T03:06:24;99083.75;;;10.08;100.00
10852;BME280;5479;52.046;6.314;2023-04-01T03:08:52;99082.91;;;10.08;100.00
10852;BME280;5479;52.046;6.314;2023-04-01T03:11:21;99081.22;;;10.07;100.00
10852;BME280;5479;52.046;6.314;2023-04-01T03:13:49;99083.41;;;10.02;100.00
10852;BME280;5479;52.046;6.314;2023-04-01T03:16:18;99088.13;;;9.98;100.00
10852;BME280;5479;52.046;6.314;2023-04-01T03:18:46;99085.38;;;10.00;100.00
10852;BME280;5479;52.046;6.314;2023-04-01T03:21:17;99086.56;;;9.96;100.00
10852;BME280;5479;52.046;6.314;2023-04-01T03:23:45;99083.94;;;9.96;100.00
10852;BME280;5479;52.046;6.314;2023-04-01T03:26:13;99084.66;;;9.98;100.00
10852;BME280;5479;52.046;6.314;2023-04-01T03:28:43;99090.75;;;9.98;100.00
10852;BME280;5479;52.046;6.314;2023-04-01T03:31:11;99090.31;;;9.93;100.00
10852;BME280;5479;52.046;6.314;2023-04-01T03:33:39;99096.69;;;9.91;100.00
10852;BME280;5479;52.046;6.314;2023-04-01T03:36:08;99100.03;;;9.93;100.00
10852;BME280;5479;52.046;6.314;2023-04-01T03:38:39;99103.41;;;9.95;100.00
10852;BME280;5479;52.046;6.314;2023-04-01T03:41:11;99102.44;;;9.96;100.00
10852;BME280;5479;52.046;6.314;2023-04-01T03:43:40;99097.28;;;9.94;100.00
10852;BME280;5479;52.046;6.314;2023-04-01T03:46:09;99107.63;;;9.97;100.00
10852;BME280;5479;52.046;6.314;2023-04-01T03:48:37;99104.38;;;9.94;100.00
10852;BME280;5479;52.046;6.314;2023-04-01T03:51:07;99102.38;;;9.86;100.00
10852;BME280;5479;52.046;6.314;2023-04-01T03:53:35;99104.38;;;9.94;100.00
10852;BME280;5479;52.046;6.314;2023-04-01T03:56:04;99111.72;;;9.90;100.00
10852;BME280;5479;52.046;6.314;2023-04-01T03:58:32;99103.72;;;9.81;100.00
10852;BME280;5479;52.046;6.314;2023-04-01T04:01:00;99105.72;;;9.88;100.00
10852;BME280;5479;52.046;6.314;2023-04-01T04:03:29;99109.72;;;9.83;100.00
10852;BME280;5479;52.046;6.314;2023-04-01T04:05:57;99115.00;;;9.83;100.00
10852;BME280;5479;52.046;6.314;2023-04-01T04:08:25;99110.94;;;9.79;100.00
10852;BME280;5479;52.046;6.314;2023-04-01T04:10:56;99112.34;;;9.83;100.00
10852;BME280;5479;52.046;6.314;2023-04-01T04:13:25;99113.91;;;9.85;100.00
10852;BME280;5479;52.046;6.314;2023-04-01T04:15:53;99114.50;;;9.89;100.00
10852;BME280;5479;52.046;6.314;2023-04-01T04:18:21;99114.53;;;9.78;100.00
10852;BME280;5479;52.046;6.314;2023-04-01T04:20:50;99117.63;;;9.83;100.00
10852;BME280;5479;52.046;6.314;2023-04-01T04:23:18;99120.75;;;9.88;100.00
10852;BME280;5479;52.046;6.314;2023-04-01T04:25:55;99116.44;;;9.87;100.00
10852;BME280;5479;52.046;6.314;2023-04-01T04:28:24;99119.44;;;9.82;100.00
10852;BME280;5479;52.046;6.314;2023-04-01T04:30:52;99127.50;;;9.81;100.00
10852;BME280;5479;52.046;6.314;2023-04-01T04:33:21;99129.56;;;9.77;100.00
10852;BME280;5479;52.046;6.314;2023-04-01T04:35:51;99117.63;;;9.83;100.00
10852;BME280;5479;52.046;6.314;2023-04-01T04:38:22;99131.84;;;9.82;100.00
10852;BME280;5479;52.046;6.314;2023-04-01T04:40:50;99133.25;;;9.86;100.00
10852;BME280;5479;52.046;6.314;2023-04-01T04:43:18;99138.41;;;9.87;100.00
10852;BME280;5479;52.046;6.314;2023-04-01T04:45:46;99130.25;;;9.79;100.00
10852;BME280;5479;52.046;6.314;2023-04-01T04:48:15;99137.22;;;9.80;100.00
10852;BME280;5479;52.046;6.314;2023-04-01T04:50:45;99137.47;;;9.77;100.00
10852;BME280;5479;52.046;6.314;2023-04-01T04:53:16;99135.91;;;9.86;100.00
10852;BME280;5479;52.046;6.314;2023-04-01T04:55:45;99144.47;;;9.78;100.00
10852;BME280;5479;52.046;6.314;2023-04-01T04:58:13;99145.66;;;9.74;100.00
10852;BME280;5479;52.046;6.314;2023-04-01T05:00:41;99143.63;;;9.78;100.00
10852;BME280;5479;52.046;6.314;2023-04-01T05:03:10;99145.31;;;9.79;100.00
10852;BME280;5479;52.046;6.314;2023-04-01T05:05:38;99152.25;;;9.80;100.00
10852;BME280;5479;52.046;6.314;2023-04-01T05:08:06;99145.66;;;9.74;100.00
10852;BME280;5479;52.046;6.314;2023-04-01T05:10:35;99152.00;;;9.83;100.00
10852;BME280;5479;52.046;6.314;2023-04-01T05:13:03;99153.47;;;9.76;100.00
10852;BME280;5479;52.046;6.314;2023-04-01T05:15:31;99150.38;;;9.70;100.00
10852;BME280;5479;52.046;6.314;2023-04-01T05:18:01;99157.56;;;9.68;100.00
10852;BME280;5479;52.046;6.314;2023-04-01T05:20:29;99150.50;;;9.69;100.00
10852;BME280;5479;52.046;6.314;2023-04-01T05:22:57;99161.28;;;9.77;100.00
10852;BME280;5479;52.046;6.314;2023-04-01T05:25:25;99159.97;;;9.71;100.00
10852;BME280;5479;52.046;6.314;2023-04-01T05:27:55;99153.84;;;9.71;100.00
10852;BME280;5479;52.046;6.314;2023-04-01T05:30:23;99160.56;;;9.75;100.00
10852;BME280;5479;52.046;6.314;2023-04-01T05:32:51;99167.44;;;9.66;100.00
10852;BME280;5479;52.046;6.314;2023-04-01T05:35:18;99162.03;;;9.68;100.00
10852;BME280;5479;52.046;6.314;2023-04-01T05:37:46;99169.69;;;9.71;100.00
10852;BME280;5479;52.046;6.314;2023-04-01T05:40:16;99174.16;;;9.70;100.00
10852;BME280;5479;52.046;6.314;2023-04-01T05:42:44;99176.06;;;9.68;100.00
10852;BME280;5479;52.046;6.314;2023-04-01T05:45:13;99172.09;;;9.74;100.00
10852;BME280;5479;52.046;6.314;2023-04-01T05:47:42;99173.66;;;9.77;100.00
10852;BME280;5479;52.046;6.314;2023-04-01T05:50:10;99175.47;;;9.76;100.00
10852;BME280;5479;52.046;6.314;2023-04-01T05:52:38;99181.09;;;9.71;100.00
10852;BME280;5479;52.046;6.314;2023-04-01T05:55:07;99181.34;;;9.68;100.00
10852;BME280;5479;52.046;6.314;2023-04-01T05:57:35;99182.44;;;9.66;100.00
10852;BME280;5479;52.046;6.314;2023-04-01T06:00:04;99178.84;;;9.67;100.00
10852;BME280;5479;52.046;6.314;2023-04-01T06:02:34;99186.63;;;9.68;100.00
10852;BME280;5479;52.046;6.314;2023-04-01T06:05:12;99184.75;;;9.70;100.00
10852;BME280;5479;52.046;6.314;2023-04-01T06:07:41;99195.16;;;9.72;100.00
10852;BME280;5479;52.046;6.314;2023-04-01T06:10:12;99196.97;;;9.71;100.00
10852;BME280;5479;52.046;6.314;2023-04-01T06:12:51;99204.56;;;9.76;100.00
10852;BME280;5479;52.046;6.314;2023-04-01T06:15:38;99201.31;;;9.73;100.00
10852;BME280;5479;52.046;6.314;2023-04-01T06:18:52;99216.44;;;9.70;100.00
10852;BME280;5479;52.046;6.314;2023-04-01T06:21:47;99208.28;;;9.74;100.00
10852;BME280;5479;52.046;6.314;2023-04-01T06:24:41;99219.53;;;9.87;100.00
10852;BME280;5479;52.046;6.314;2023-04-01T06:27:20;99219.22;;;10.01;100.00
10852;BME280;5479;52.046;6.314;2023-04-01T06:30:10;99218.78;;;9.96;100.00
10852;BME280;5479;52.046;6.314;2023-04-01T06:33:03;99220.31;;;9.98;100.00
10852;BME280;5479;52.046;6.314;2023-04-01T06:35:44;99229.00;;;10.00;100.00
10852;BME280;5479;52.046;6.314;2023-04-01T06:38:31;99231.38;;;10.14;100.00
10852;BME280;5479;52.046;6.314;2023-04-01T06:41:28;99234.75;;;10.16;100.00
10852;BME280;5479;52.046;6.314;2023-04-01T06:44:11;99236.22;;;10.30;100.00
10852;BME280;5479;52.046;6.314;2023-04-01T06:46:45;99238.88;;;10.30;100.00
10852;BME280;5479;52.046;6.314;2023-04-01T06:49:33;99239.06;;;10.38;100.00
10852;BME280;5479;52.046;6.314;2023-04-01T06:52:13;99242.56;;;10.39;100.00
10852;BME280;5479;52.046;6.314;2023-04-01T06:54:47;99244.13;;;10.41;100.00
10852;BME280;5479;52.046;6.314;2023-04-01T06:57:22;99258.34;;;10.40;100.00
10852;BME280;5479;52.046;6.314;2023-04-01T06:59:52;99252.50;;;10.46;100.00
10852;BME280;5479;52.046;6.314;2023-04-01T07:02:25;99255.28;;;10.45;100.00
10852;BME280;5479;52.046;6.314;2023-04-01T07:04:57;99257.44;;;10.51;100.00
10852;BME280;5479;52.046;6.314;2023-04-01T07:07:32;99266.72;;;10.45;100.00
10852;BME280;5479;52.046;6.314;2023-04-01T07:10:05;99260.94;;;10.51;100.00
10852;BME280;5479;52.046;6.314;2023-04-01T07:12:43;99262.84;;;10.49;100.00
10852;BME280;5479;52.046;6.314;2023-04-01T07:15:18;99274.63;;;10.56;100.00
10852;BME280;5479;52.046;6.314;2023-04-01T07:17:50;99275.78;;;10.63;100.00
10852;BME280;5479;52.046;6.314;2023-04-01T07:20:22;99272.56;;;10.80;100.00
10852;BME280;5479;52.046;6.314;2023-04-01T07:22:56;99284.56;;;10.84;100.00
10852;BME280;5479;52.046;6.314;2023-04-01T07:25:29;99286.00;;;10.88;100.00
10852;BME280;5479;52.046;6.314;2023-04-01T07:28:02;99295.16;;;10.84;100.00
10852;BME280;5479;52.046;6.314;2023-04-01T07:30:43;99292.31;;;10.97;100.00
10852;BME280;5479;52.046;6.314;2023-04-01T07:33:15;99298.44;;;10.98;100.00
10852;BME280;5479;52.046;6.314;2023-04-01T07:35:53;99298.91;;;11.03;100.00
10852;BME280;5479;52.046;6.314;2023-04-01T07:38:30;99307.84;;;11.02;100.00
10852;BME280;5479;52.046;6.314;2023-04-01T07:41:09;99310.72;;;11.19;100.00
10852;BME280;5479;52.046;6.314;2023-04-01T07:43:53;99320.34;;;11.00;100.00
10852;BME280;5479;52.046;6.314;2023-04-01T07:46:38;99328.38;;;10.88;100.00
10852;BME280;5479;52.046;6.314;2023-04-01T07:49:14;99325.19;;;10.74;100.00
10852;BME280;5479;52.046;6.314;2023-04-01T07:51:49;99326.44;;;10.90;100.00
10852;BME280;5479;52.046;6.314;2023-04-01T07:54:28;99331.88;;;11.10;100.00
10852;BME280;5479;52.046;6.314;2023-04-01T07:57:01;99335.53;;;11.18;100.00
10852;BME280;5479;52.046;6.314;2023-04-01T07:59:37;99342.47;;;11.10;100.00
10852;BME280;5479;52.046;6.314;2023-04-01T08:02:18;99343.16;;;11.12;100.00
10852;BME280;5479;52.046;6.314;2023-04-01T08:04:55;99348.91;;;11.17;100.00
10852;BME280;5479;52.046;6.314;2023-04-01T08:07:31;99350.84;;;11.15;100.00
10852;BME280;5479;52.046;6.314;2023-04-01T08:10:11;99359.31;;;10.88;100.00
10852;BME280;5479;52.046;6.314;2023-04-01T08:12:50;99362.91;;;10.87;100.00
10852;BME280;5479;52.046;6.314;2023-04-01T08:15:23;99369.19;;;10.86;100.00
10852;BME280;5479;52.046;6.314;2023-04-01T08:18:04;99375.19;;;10.88;100.00
10852;BME280;5479;52.046;6.314;2023-04-01T08:20:37;99368.13;;;10.77;100.00
10852;BME280;5479;52.046;6.314;2023-04-01T08:23:11;99375.09;;;10.78;100.00
10852;BME280;5479;52.046;6.314;2023-04-01T08:25:48;99384.66;;;10.70;100.00
10852;BME280;5479;52.046;6.314;2023-04-01T08:28:21;99373.75;;;10.52;100.00
10852;BME280;5479;52.046;6.314;2023-04-01T08:30:53;99385.25;;;10.62;100.00
10852;BME280;5479;52.046;6.314;2023-04-01T08:33:25;99390.56;;;10.62;100.00
10852;BME280;5479;52.046;6.314;2023-04-01T08:35:57;99405.25;;;10.55;100.00
10852;BME280;5479;52.046;6.314;2023-04-01T08:38:34;99403.34;;;10.46;100.00
10852;BME280;5479;52.046;6.314;2023-04-01T08:41:22;99405.50;;;10.52;100.00
10852;BME280;5479;52.046;6.314;2023-04-01T08:44:14;99411.28;;;10.46;100.00
10852;BME280;5479;52.046;6.314;2023-04-01T08:52:52;99424.25;;;10.60;100.00
10852;BME280;5479;52.046;6.314;2023-04-01T08:55:47;99425.94;;;10.61;100.00
10852;BME280;5479;52.046;6.314;2023-04-01T08:58:43;99430.16;;;10.64;100.00
10852;BME280;5479;52.046;6.314;2023-04-01T09:01:25;99429.69;;;10.59;100.00
10852;BME280;5479;52.046;6.314;2023-04-01T09:04:17;99433.75;;;10.63;100.00
10852;BME280;5479;52.046;6.314;2023-04-01T09:07:04;99440.13;;;10.71;100.00
10852;BME280;5479;52.046;6.314;2023-04-01T09:10:20;99437.47;;;10.71;100.00
10852;BME280;5479;52.046;6.314;2023-04-01T09:13:05;99446.88;;;10.64;100.00
10852;BME280;5479;52.046;6.314;2023-04-01T09:16:00;99447.81;;;10.74;100.00
10852;BME280;5479;52.046;6.314;2023-04-01T09:24:42;99459.75;;;11.01;100.00
10852;BME280;5479;52.046;6.314;2023-04-01T09:27:26;99462.28;;;11.02;100.00
10852;BME280;5479;52.046;6.314;2023-04-01T09:33:17;99470.56;;;11.09;100.00
10852;BME280;5479;52.046;6.314;2023-04-01T09:35:56;99470.28;;;11.23;100.00
10852;BME280;5479;52.046;6.314;2023-04-01T09:38:42;99469.16;;;11.57;100.00
10852;BME280;5479;52.046;6.314;2023-04-01T09:41:28;99480.91;;;11.64;100.00
10852;BME280;5479;52.046;6.314;2023-04-01T09:44:14;99483.28;;;11.78;100.00
10852;BME280;5479;52.046;6.314;2023-04-01T09:46:59;99478.81;;;11.79;100.00
10852;BME280;5479;52.046;6.314;2023-04-01T09:49:57;99483.84;;;12.02;100.00
10852;BME280;5479;52.046;6.314;2023-04-01T09:52:36;99488.84;;;12.26;100.00
10852;BME280;5479;52.046;6.314;2023-04-01T09:55:26;99489.97;;;12.33;100.00
10852;BME280;5479;52.046;6.314;2023-04-01T09:58:50;99485.53;;;12.03;100.00
10852;BME280;5479;52.046;6.314;2023-04-01T10:01:48;99502.09;;;11.75;100.00
10852;BME280;5479;52.046;6.314;2023-04-01T10:08:06;99501.63;;;11.70;100.00
10852;BME280;5479;52.046;6.314;2023-04-01T10:11:03;99504.78;;;11.64;100.00
10852;BME280;5479;52.046;6.314;2023-04-01T10:16:55;99518.19;;;11.83;100.00
10852;BME280;5479;52.046;6.314;2023-04-01T10:19:44;99514.34;;;11.87;100.00
10852;BME280;5479;52.046;6.314;2023-04-01T10:22:36;99524.16;;;11.96;100.00
10852;BME280;5479;52.046;6.314;2023-04-01T10:25:23;99529.91;;;11.81;100.00
10852;BME280;5479;52.046;6.314;2023-04-01T10:31:24;99524.47;;;12.03;100.00
10852;BME280;5479;52.046;6.314;2023-04-01T10:34:36;99527.50;;;11.98;100.00
10852;BME280;5479;52.046;6.314;2023-04-01T10:37:23;99530.69;;;11.92;100.00
10852;BME280;5479;52.046;6.314;2023-04-01T10:40:29;99531.78;;;11.90;100.00
10852;BME280;5479;52.046;6.314;2023-04-01T10:46:48;99538.69;;;12.02;100.00
10852;BME280;5479;52.046;6.314;2023-04-01T10:49:44;99535.53;;;12.08;100.00
10852;BME280;5479;52.046;6.314;2023-04-01T10:52:43;99544.44;;;12.28;100.00
10852;BME280;5479;52.046;6.314;2023-04-01T10:59:00;99546.53;;;12.24;100.00
10852;BME280;5479;52.046;6.314;2023-04-01T11:01:51;99550.47;;;12.30;100.00
10852;BME280;5479;52.046;6.314;2023-04-01T11:08:23;99551.25;;;12.81;100.00
10852;BME280;5479;52.046;6.314;2023-04-01T11:11:35;99555.13;;;12.77;100.00
10852;BME280;5479;52.046;6.314;2023-04-01T11:14:39;99563.00;;;12.88;100.00
10852;BME280;5479;52.046;6.314;2023-04-01T11:17:31;99554.00;;;13.19;100.00
10852;BME280;5479;52.046;6.314;2023-04-01T11:20:25;99558.25;;;13.32;100.00
10852;BME280;5479;52.046;6.314;2023-04-01T11:25:57;99568.91;;;13.99;100.00
10852;BME280;5479;52.046;6.314;2023-04-01T11:29:01;99567.16;;;14.26;100.00
10852;BME280;5479;52.046;6.314;2023-04-01T11:31:41;99576.13;;;14.35;100.00
10852;BME280;5479;52.046;6.314;2023-04-01T11:34:37;99581.47;;;14.35;100.00
10852;BME280;5479;52.046;6.314;2023-04-01T11:37:21;99577.53;;;14.39;100.00
10852;BME280;5479;52.046;6.314;2023-04-01T11:40:02;99588.84;;;14.50;100.00
10852;BME280;5479;52.046;6.314;2023-04-01T11:42:40;99588.44;;;14.82;100.00
10852;BME280;5479;52.046;6.314;2023-04-01T11:45:24;99592.84;;;15.28;100.00
10852;BME280;5479;52.046;6.314;2023-04-01T11:48:11;99591.28;;;15.35;100.00
10852;BME280;5479;52.046;6.314;2023-04-01T11:50:57;99595.38;;;15.02;100.00
10852;BME280;5479;52.046;6.314;2023-04-01T11:53:39;99599.28;;;15.08;100.00
10852;BME280;5479;52.046;6.314;2023-04-01T11:56:26;99610.53;;;15.02;100.00
10852;BME280;5479;52.046;6.314;2023-04-01T12:01:56;99619.72;;;13.76;100.00
10852;BME280;5479;52.046;6.314;2023-04-01T12:07:53;99624.28;;;13.36;100.00
10852;BME280;5479;52.046;6.314;2023-04-01T12:10:27;99622.91;;;13.42;100.00
10852;BME280;5479;52.046;6.314;2023-04-01T12:13:02;99627.72;;;13.67;100.00
10852;BME280;5479;52.046;6.314;2023-04-01T12:15:41;99630.25;;;13.87;100.00
10852;BME280;5479;52.046;6.314;2023-04-01T12:18:15;99637.66;;;13.84;100.00
10852;BME280;5479;52.046;6.314;2023-04-01T12:20:49;99637.78;;;13.73;100.00
10852;BME280;5479;52.046;6.314;2023-04-01T12:23:37;99644.53;;;13.96;100.00
10852;BME280;5479;52.046;6.314;2023-04-01T12:26:30;99643.97;;;14.31;100.00
10852;BME280;5479;52.046;6.314;2023-04-01T12:29:21;99655.59;;;14.49;100.00
10852;BME280;5479;52.046;6.314;2023-04-01T12:32:02;99650.97;;;14.32;100.00
10852;BME280;5479;52.046;6.314;2023-04-01T12:34:48;99648.44;;;14.30;100.00
10852;BME280;5479;52.046;6.314;2023-04-01T12:37:33;99663.56;;;14.49;100.00
10852;BME280;5479;52.046;6.314;2023-04-01T12:40:23;99660.78;;;14.12;100.00
10852;BME280;5479;52.046;6.314;2023-04-01T12:43:10;99661.63;;;14.03;100.00
10852;BME280;5479;52.046;6.314;2023-04-01T12:45:49;99668.47;;;14.15;100.00
10852;BME280;5479;52.046;6.314;2023-04-01T12:48:53;99670.88;;;14.09;100.00
10852;BME280;5479;52.046;6.314;2023-04-01T12:51:33;99677.28;;;13.97;100.00
10852;BME280;5479;52.046;6.314;2023-04-01T12:54:18;99688.31;;;13.73;100.00
10852;BME280;5479;52.046;6.314;2023-04-01T12:57:01;99691.63;;;13.46;100.00
10852;BME280;5479;52.046;6.314;2023-04-01T12:59:44;99694.00;;;13.40;100.00
10852;BME280;5479;52.046;6.314;2023-04-01T13:02:30;99695.34;;;13.24;100.00
10852;BME280;5479;52.046;6.314;2023-04-01T13:05:20;99706.78;;;13.15;100.00
10852;BME280;5479;52.046;6.314;2023-04-01T13:08:09;99706.59;;;13.07;100.00
10852;BME280;5479;52.046;6.314;2023-04-01T13:11:13;99723.00;;;12.71;100.00
10852;BME280;5479;52.046;6.314;2023-04-01T13:16:53;99734.94;;;11.92;100.00
10852;BME280;5479;52.046;6.314;2023-04-01T13:19:31;99740.75;;;11.86;100.00
10852;BME280;5479;52.046;6.314;2023-04-01T13:22:07;99745.38;;;11.73;100.00
10852;BME280;5479;52.046;6.314;2023-04-01T13:24:45;99756.66;;;11.64;100.00
10852;BME280;5479;52.046;6.314;2023-04-01T13:27:17;99749.69;;;11.63;100.00
10852;BME280;5479;52.046;6.314;2023-04-01T13:29:59;99762.47;;;11.58;100.00
10852;BME280;5479;52.046;6.314;2023-04-01T13:32:34;99764.16;;;11.59;100.00
10852;BME280;5479;52.046;6.314;2023-04-01T13:35:20;99769.59;;;11.46;100.00
10852;BME280;5479;52.046;6.314;2023-04-01T13:38:09;99765.72;;;11.50;100.00
10852;BME280;5479;52.046;6.314;2023-04-01T13:40:49;99771.16;;;11.38;100.00
10852;BME280;5479;52.046;6.314;2023-04-01T13:43:24;99778.16;;;11.50;100.00
10852;BME280;5479;52.046;6.314;2023-04-01T13:46:10;99784.63;;;11.46;100.00
10852;BME280;5479;52.046;6.314;2023-04-01T13:48:58;99780.28;;;11.56;100.00
10852;BME280;5479;52.046;6.314;2023-04-01T13:51:52;99783.19;;;11.64;100.00
10852;BME280;5479;52.046;6.314;2023-04-01T13:54:52;99790.41;;;11.62;100.00
10852;BME280;5479;52.046;6.314;2023-04-01T13:57:36;99797.41;;;11.63;100.00
10852;BME280;5479;52.046;6.314;2023-04-01T14:00:19;99794.03;;;11.61;100.00
10852;BME280;5479;52.046;6.314;2023-04-01T14:03:03;99797.41;;;11.52;100.00
10852;BME280;5479;52.046;6.314;2023-04-01T14:05:51;99810.78;;;11.62;100.00
10852;BME280;5479;52.046;6.314;2023-04-01T14:08:33;99813.09;;;11.44;100.00
10852;BME280;5479;52.046;6.314;2023-04-01T14:11:13;99816.44;;;11.46;100.00
10852;BME280;5479;52.046;6.314;2023-04-01T14:13:50;99820.44;;;11.51;100.00
10852;BME280;5479;52.046;6.314;2023-04-01T14:19:32;99822.97;;;11.75;100.00
10852;BME280;5479;52.046;6.314;2023-04-01T14:22:17;99826.13;;;11.58;100.00
10852;BME280;5479;52.046;6.314;2023-04-01T14:27:57;99831.41;;;11.80;100.00
10852;BME280;5479;52.046;6.314;2023-04-01T14:30:52;99840.44;;;11.44;100.00
10852;BME280;5479;52.046;6.314;2023-04-01T14:33:31;99849.22;;;11.34;100.00
10852;BME280;5479;52.046;6.314;2023-04-01T14:36:17;99839.72;;;11.53;100.00
10852;BME280;5479;52.046;6.314;2023-04-01T14:38:55;99847.31;;;11.58;100.00
10852;BME280;5479;52.046;6.314;2023-04-01T14:41:36;99843.34;;;11.52;100.00
10852;BME280;5479;52.046;6.314;2023-04-01T14:47:24;99847.09;;;11.72;100.00
10852;BME280;5479;52.046;6.314;2023-04-01T14:50:04;99855.53;;;11.88;100.00
10852;BME280;5479;52.046;6.314;2023-04-01T14:52:36;99860.59;;;11.91;100.00
10852;BME280;5479;52.046;6.314;2023-04-01T14:55:20;99856.84;;;11.72;100.00
10852;BME280;5479;52.046;6.314;2023-04-01T14:58:08;99867.69;;;11.58;100.00